createdAt,value
2022-08-30T00:01:29.600Z,99.90
2022-08-30T00:03:58.374Z,99.90
2022-08-30T00:06:27.134Z,99.90
2022-08-30T00:08:54.325Z,99.90
2022-08-30T00:11:25.457Z,99.90
2022-08-30T00:13:54.202Z,99.90
2022-08-30T00:16:22.933Z,99.90
2022-08-30T00:18:50.771Z,99.90
2022-08-30T00:21:19.094Z,99.90
2022-08-30T00:23:45.952Z,99.90
2022-08-30T00:26:12.775Z,99.90
2022-08-30T00:28:39.529Z,99.90
2022-08-30T00:31:07.351Z,99.90
2022-08-30T00:33:34.449Z,99.90
2022-08-30T00:36:01.289Z,99.90
2022-08-30T00:38:28.076Z,99.90
2022-08-30T00:40:55.164Z,99.90
2022-08-30T00:43:30.787Z,99.90
2022-08-30T00:45:58.090Z,99.90
2022-08-30T00:48:25.013Z,99.90
2022-08-30T00:50:57.897Z,99.90
2022-08-30T00:53:37.568Z,99.90
2022-08-30T00:56:05.379Z,99.90
2022-08-30T00:58:36.797Z,99.90
2022-08-30T01:01:06.218Z,99.90
2022-08-30T01:03:34.532Z,99.90
2022-08-30T01:06:02.704Z,99.90
2022-08-30T01:08:29.557Z,99.90
2022-08-30T01:10:57.827Z,99.90
2022-08-30T01:13:26.785Z,99.90
2022-08-30T01:15:54.708Z,99.90
2022-08-30T01:18:24.057Z,99.90
2022-08-30T01:21:17.419Z,99.90
2022-08-30T01:23:47.485Z,99.90
2022-08-30T01:26:15.837Z,99.90
2022-08-30T01:28:47.694Z,99.90
2022-08-30T01:31:15.933Z,99.90
2022-08-30T01:33:43.252Z,99.90
2022-08-30T01:36:13.136Z,99.90
2022-08-30T01:38:51.770Z,99.90
2022-08-30T01:41:21.626Z,99.90
2022-08-30T01:43:50.264Z,99.90
2022-08-30T01:46:21.205Z,99.90
2022-08-30T01:48:52.960Z,99.90
2022-08-30T01:51:23.233Z,99.90
2022-08-30T01:53:50.466Z,99.90
2022-08-30T01:56:18.170Z,99.90
2022-08-30T01:58:46.641Z,99.90
2022-08-30T02:01:17.491Z,99.90
2022-08-30T02:03:45.317Z,99.90
2022-08-30T02:06:14.612Z,99.90
2022-08-30T02:08:41.967Z,99.90
2022-08-30T02:11:10.229Z,99.90
2022-08-30T02:13:38.038Z,99.90
2022-08-30T02:16:10.184Z,99.90
2022-08-30T02:18:39.278Z,99.90
2022-08-30T02:21:07.527Z,99.90
2022-08-30T02:23:34.476Z,99.90
2022-08-30T02:26:01.498Z,99.90
2022-08-30T02:28:29.139Z,99.90
2022-08-30T02:30:55.963Z,99.90
2022-08-30T02:33:23.133Z,99.90
2022-08-30T02:35:50.108Z,99.90
2022-08-30T02:38:20.006Z,99.90
2022-08-30T02:40:47.226Z,99.90
2022-08-30T02:43:14.064Z,99.90
2022-08-30T02:45:41.061Z,99.90
2022-08-30T02:48:08.186Z,99.90
2022-08-30T02:50:35.023Z,99.90
2022-08-30T02:53:01.783Z,99.90
2022-08-30T02:55:28.464Z,99.90
2022-08-30T02:57:55.164Z,99.90
2022-08-30T03:00:22.179Z,99.90
2022-08-30T03:02:49.404Z,99.90
2022-08-30T03:05:17.977Z,99.90
2022-08-30T03:07:46.518Z,99.90
2022-08-30T03:10:14.489Z,99.90
2022-08-30T03:12:41.870Z,99.90
2022-08-30T03:15:12.625Z,99.90
2022-08-30T03:17:40.467Z,99.90
2022-08-30T03:20:08.953Z,99.90
2022-08-30T03:22:36.097Z,99.90
2022-08-30T03:25:03.779Z,99.90
2022-08-30T03:27:30.743Z,99.90
2022-08-30T03:29:57.451Z,99.90
2022-08-30T03:32:24.706Z,99.90
2022-08-30T03:34:51.565Z,99.90
2022-08-30T03:37:18.502Z,99.90
2022-08-30T03:39:45.588Z,99.90
2022-08-30T03:42:13.248Z,99.90
2022-08-30T03:44:39.970Z,99.90
2022-08-30T03:47:08.531Z,99.90
2022-08-30T03:49:35.408Z,99.90
2022-08-30T03:52:02.479Z,99.90
2022-08-30T03:54:29.481Z,99.90
2022-08-30T03:56:56.519Z,99.90
2022-08-30T03:59:23.657Z,99.90
2022-08-30T04:01:50.568Z,99.90
2022-08-30T04:04:20.927Z,99.90
2022-08-30T04:06:48.324Z,99.90
2022-08-30T04:09:15.043Z,99.90
2022-08-30T04:11:42.245Z,99.90
2022-08-30T04:14:09.100Z,99.90
2022-08-30T04:16:35.988Z,99.90
2022-08-30T04:19:03.220Z,99.90
2022-08-30T04:21:30.010Z,99.90
2022-08-30T04:23:56.935Z,99.90
2022-08-30T04:26:23.716Z,99.90
2022-08-30T04:28:56.598Z,99.90
2022-08-30T04:31:23.653Z,99.90
2022-08-30T04:33:50.494Z,99.90
2022-08-30T04:36:17.341Z,99.90
2022-08-30T04:38:44.053Z,99.90
2022-08-30T04:41:19.464Z,99.90
2022-08-30T04:43:48.363Z,99.90
2022-08-30T04:46:15.333Z,99.90
2022-08-30T04:48:42.638Z,99.90
2022-08-30T04:51:14.104Z,99.90
2022-08-30T04:53:42.770Z,99.90
2022-08-30T04:56:11.422Z,99.90
2022-08-30T04:58:38.520Z,99.90
2022-08-30T05:01:05.401Z,99.90
2022-08-30T05:03:32.176Z,99.90
2022-08-30T05:05:59.028Z,99.90
2022-08-30T05:08:25.790Z,99.90
2022-08-30T05:10:52.901Z,99.90
2022-08-30T05:13:25.978Z,99.90
2022-08-30T05:16:04.479Z,99.90
2022-08-30T05:18:31.356Z,99.90
2022-08-30T05:21:12.383Z,99.90
2022-08-30T05:23:40.100Z,99.90
2022-08-30T05:26:09.264Z,99.90
2022-08-30T05:28:36.460Z,99.90
2022-08-30T05:31:03.677Z,99.90
2022-08-30T05:33:30.412Z,99.90
2022-08-30T05:35:57.089Z,99.90
2022-08-30T05:38:23.812Z,99.90
2022-08-30T05:40:53.554Z,99.90
2022-08-30T05:43:21.084Z,99.90
2022-08-30T05:46:01.331Z,99.90
2022-08-30T05:48:29.066Z,99.90
2022-08-30T05:51:11.567Z,99.90
2022-08-30T05:53:39.781Z,99.90
2022-08-30T05:56:09.810Z,99.90
2022-08-30T05:58:37.428Z,99.90
2022-08-30T06:01:04.940Z,99.90
2022-08-30T06:03:34.938Z,99.90
2022-08-30T06:06:02.412Z,99.90
2022-08-30T06:08:29.213Z,99.90
2022-08-30T06:10:55.915Z,99.90
2022-08-30T06:13:23.227Z,99.90
2022-08-30T06:15:51.250Z,99.90
2022-08-30T06:18:18.356Z,99.90
2022-08-30T06:20:51.312Z,99.90
2022-08-30T06:23:18.079Z,99.90
2022-08-30T06:25:45.225Z,99.90
2022-08-30T06:28:12.382Z,99.90
2022-08-30T06:30:41.841Z,99.90
2022-08-30T06:33:09.829Z,99.90
2022-08-30T06:35:42.333Z,99.90
2022-08-30T06:38:19.045Z,99.90
2022-08-30T06:40:45.806Z,99.90
2022-08-30T06:43:12.571Z,99.90
2022-08-30T06:45:39.286Z,99.90
2022-08-30T06:48:06.011Z,99.90
2022-08-30T06:50:32.860Z,99.90
2022-08-30T06:53:05.629Z,99.90
2022-08-30T06:55:33.498Z,99.90
2022-08-30T06:58:01.610Z,99.90
2022-08-30T07:00:29.002Z,99.90
2022-08-30T07:02:55.795Z,99.90
2022-08-30T07:05:23.741Z,99.90
2022-08-30T07:07:53.282Z,99.90
2022-08-30T07:10:21.383Z,99.90
2022-08-30T07:12:48.926Z,99.90
2022-08-30T07:15:16.089Z,99.90
2022-08-30T07:18:01.321Z,99.90
2022-08-30T07:20:28.044Z,99.90
2022-08-30T07:23:07.041Z,99.90
2022-08-30T07:25:33.764Z,99.90
2022-08-30T07:28:00.446Z,99.90
2022-08-30T07:30:27.167Z,99.90
2022-08-30T07:32:53.957Z,99.90
2022-08-30T07:35:20.691Z,99.90
2022-08-30T07:37:47.431Z,99.90
2022-08-30T07:40:14.214Z,99.90
2022-08-30T07:42:41.067Z,99.90
2022-08-30T07:45:09.144Z,99.90
2022-08-30T07:47:36.429Z,99.90
2022-08-30T07:50:05.610Z,99.90
2022-08-30T07:52:32.915Z,99.90
2022-08-30T07:55:00.187Z,99.90
2022-08-30T07:57:27.723Z,99.90
2022-08-30T07:59:54.627Z,99.90
2022-08-30T08:02:21.403Z,99.90
2022-08-30T08:04:48.651Z,99.90
2022-08-30T08:07:15.771Z,99.90
2022-08-30T08:09:42.622Z,99.90
2022-08-30T08:12:09.958Z,99.90
2022-08-30T08:14:37.479Z,99.90
2022-08-30T08:17:05.126Z,99.90
2022-08-30T08:19:31.823Z,99.90
2022-08-30T08:22:20.937Z,99.90
2022-08-30T08:24:47.037Z,99.90
2022-08-30T08:27:13.807Z,99.90
2022-08-30T08:29:40.532Z,99.90
2022-08-30T08:32:07.240Z,99.90
2022-08-30T08:34:36.128Z,99.90
2022-08-30T08:37:03.284Z,99.90
2022-08-30T08:39:30.008Z,99.90
2022-08-30T08:42:12.699Z,99.90
2022-08-30T08:45:11.850Z,99.90
2022-08-30T08:47:41.052Z,99.90
2022-08-30T08:50:13.206Z,99.90
2022-08-30T08:53:10.851Z,99.90
2022-08-30T08:55:49.363Z,99.90
2022-08-30T08:58:29.027Z,99.90
2022-08-30T09:00:57.841Z,99.90
2022-08-30T09:03:27.675Z,99.90
2022-08-30T09:05:55.611Z,99.90
2022-08-30T09:08:23.608Z,99.90
2022-08-30T09:11:02.165Z,99.90
2022-08-30T09:13:29.080Z,99.90
2022-08-30T09:15:59.394Z,99.90
2022-08-30T09:18:51.385Z,99.90
2022-08-30T09:21:25.222Z,99.90
2022-08-30T09:23:59.220Z,98.50
2022-08-30T09:26:32.553Z,99.90
2022-08-30T09:29:01.172Z,96.80
2022-08-30T09:31:48.794Z,95.00
2022-08-30T09:34:21.667Z,98.80
2022-08-30T09:36:53.885Z,93.10
2022-08-30T09:39:29.463Z,94.10
2022-08-30T09:42:15.181Z,90.90
2022-08-30T09:44:42.157Z,90.80
2022-08-30T09:47:24.027Z,92.10
2022-08-30T09:50:05.077Z,85.20
2022-08-30T09:52:55.306Z,82.10
2022-08-30T09:55:46.571Z,86.70
2022-08-30T09:58:48.363Z,78.50
2022-08-30T10:01:30.775Z,71.90
2022-08-30T10:04:30.887Z,76.60
2022-08-30T10:07:10.985Z,78.40
2022-08-30T10:10:03.812Z,75.20
2022-08-30T10:12:35.824Z,72.60
2022-08-30T10:15:28.269Z,67.60
2022-08-30T10:17:58.837Z,69.90
2022-08-30T10:20:47.245Z,67.10
2022-08-30T10:23:44.477Z,66.30
2022-08-30T10:26:50.400Z,68.70
2022-08-30T10:29:25.197Z,70.70
2022-08-30T10:32:15.417Z,71.70
2022-08-30T10:34:49.004Z,73.50
2022-08-30T10:37:47.660Z,69.50
2022-08-30T10:40:44.384Z,68.90
2022-08-30T10:43:30.222Z,63.00
2022-08-30T10:46:00.481Z,67.60
2022-08-30T10:48:36.754Z,67.60
2022-08-30T10:51:13.391Z,71.50
2022-08-30T10:54:06.421Z,72.10
2022-08-30T10:56:35.564Z,67.60
2022-08-30T10:59:05.716Z,66.10
2022-08-30T11:02:06.996Z,68.00
2022-08-30T11:04:48.684Z,68.40
2022-08-30T11:07:38.286Z,70.20
2022-08-30T11:10:17.918Z,62.30
2022-08-30T11:13:14.576Z,59.40
2022-08-30T11:15:59.512Z,61.00
2022-08-30T11:18:30.787Z,59.70
2022-08-30T11:21:17.298Z,58.60
2022-08-30T11:23:57.934Z,58.60
2022-08-30T11:26:50.031Z,58.00
2022-08-30T11:29:37.961Z,57.40
2022-08-30T11:32:13.874Z,58.50
2022-08-30T11:34:46.688Z,59.30
2022-08-30T11:37:31.470Z,57.10
2022-08-30T11:40:01.804Z,57.40
2022-08-30T11:42:38.694Z,57.40
2022-08-30T11:45:24.700Z,58.60
2022-08-30T11:47:56.520Z,58.80
2022-08-30T11:50:38.503Z,59.60
2022-08-30T11:53:11.322Z,56.90
2022-08-30T11:55:42.291Z,60.50
2022-08-30T11:58:36.741Z,58.00
2022-08-30T12:01:41.890Z,60.00
2022-08-30T12:04:15.312Z,59.80
2022-08-30T12:06:42.120Z,60.80
2022-08-30T12:09:35.739Z,61.10
2022-08-30T12:12:06.691Z,58.90
2022-08-30T12:14:54.592Z,59.80
2022-08-30T12:17:43.486Z,62.90
2022-08-30T12:20:39.010Z,66.60
2022-08-30T12:23:29.204Z,65.40
2022-08-30T12:26:17.722Z,63.50
2022-08-30T12:28:49.695Z,66.60
2022-08-30T12:31:22.293Z,61.10
2022-08-30T12:34:01.050Z,61.40
2022-08-30T12:36:41.671Z,59.20
2022-08-30T12:39:37.309Z,58.80
2022-08-30T12:42:27.435Z,58.50
2022-08-30T12:44:57.957Z,58.30
2022-08-30T12:47:30.207Z,58.60
2022-08-30T12:49:57.875Z,58.50
2022-08-30T12:52:34.858Z,56.70
2022-08-30T12:55:22.947Z,59.20
2022-08-30T12:58:07.450Z,59.40
2022-08-30T13:00:36.293Z,57.90
2022-08-30T13:03:24.058Z,57.20
2022-08-30T13:05:52.921Z,56.90
2022-08-30T13:08:28.329Z,58.70
2022-08-30T13:11:20.328Z,57.80
2022-08-30T13:13:52.580Z,57.70
2022-08-30T13:16:23.435Z,55.90
2022-08-30T13:19:16.651Z,59.00
2022-08-30T13:21:57.251Z,55.10
2022-08-30T13:24:25.811Z,56.60
2022-08-30T13:26:55.477Z,56.70
2022-08-30T13:29:26.118Z,53.30
2022-08-30T13:31:54.294Z,54.40
2022-08-30T13:34:22.814Z,57.30
2022-08-30T13:36:55.026Z,55.90
2022-08-30T13:39:22.022Z,54.20
2022-08-30T13:41:49.593Z,53.70
2022-08-30T13:44:16.566Z,54.80
2022-08-30T13:46:52.526Z,55.50
2022-08-30T13:52:22.900Z,55.20
2022-08-30T13:54:54.954Z,54.10
2022-08-30T14:00:17.950Z,50.70
2022-08-30T14:02:51.640Z,49.50
2022-08-30T14:05:48.938Z,46.20
2022-08-30T14:11:07.638Z,42.90
2022-08-30T14:13:34.509Z,41.70
2022-08-30T14:18:51.670Z,39.70
2022-08-30T14:21:21.268Z,39.30
2022-08-30T14:23:51.651Z,39.80
2022-08-30T14:26:22.821Z,38.50
2022-08-30T14:28:51.874Z,35.60
2022-08-30T14:31:19.745Z,35.20
2022-08-30T14:33:47.102Z,34.50
2022-08-30T14:36:15.830Z,35.70
2022-08-30T14:38:43.340Z,35.30
2022-08-30T14:41:11.074Z,34.80
2022-08-30T14:43:40.676Z,32.80
2022-08-30T14:46:08.969Z,32.70
2022-08-30T14:48:37.968Z,34.20
2022-08-30T14:51:13.462Z,33.00
2022-08-30T14:53:40.713Z,34.90
2022-08-30T14:56:19.525Z,35.50
2022-08-30T14:58:54.279Z,34.50
2022-08-30T15:01:22.679Z,33.50
2022-08-30T15:03:49.435Z,32.90
2022-08-30T15:06:18.131Z,35.10
2022-08-30T15:08:47.594Z,35.80
2022-08-30T15:11:17.529Z,37.80
2022-08-30T15:13:44.698Z,38.40
2022-08-30T15:16:17.769Z,39.10
2022-08-30T15:18:44.821Z,40.30
2022-08-30T15:21:11.646Z,41.80
2022-08-30T15:23:39.424Z,43.80
2022-08-30T15:26:08.087Z,45.10
2022-08-30T15:28:36.093Z,45.40
2022-08-30T15:31:06.311Z,47.30
2022-08-30T15:33:35.928Z,47.50
2022-08-30T15:36:06.718Z,46.90
2022-08-30T15:38:34.680Z,48.40
2022-08-30T15:41:04.845Z,47.00
2022-08-30T15:43:31.796Z,48.00
2022-08-30T15:46:22.790Z,47.80
2022-08-30T15:48:52.068Z,48.20
2022-08-30T15:51:19.391Z,48.90
2022-08-30T15:53:46.401Z,49.60
2022-08-30T15:56:13.393Z,48.40
2022-08-30T15:58:41.122Z,50.00
2022-08-30T16:01:09.086Z,50.30
2022-08-30T16:03:37.947Z,48.80
2022-08-30T16:06:04.957Z,50.90
2022-08-30T16:08:31.651Z,51.20
2022-08-30T16:10:58.426Z,51.70
2022-08-30T16:13:25.200Z,52.40
2022-08-30T16:15:52.137Z,53.70
2022-08-30T16:18:19.002Z,53.30
2022-08-30T16:20:45.746Z,53.80
2022-08-30T16:23:12.537Z,55.00
2022-08-30T16:25:40.850Z,55.10
2022-08-30T16:28:09.461Z,55.10
2022-08-30T16:30:36.559Z,55.60
2022-08-30T16:33:03.411Z,57.00
2022-08-30T16:35:30.168Z,55.70
2022-08-30T16:37:56.981Z,56.60
2022-08-30T16:40:23.708Z,56.20
2022-08-30T16:42:50.663Z,57.10
2022-08-30T16:45:17.977Z,56.20
2022-08-30T16:47:46.074Z,57.70
2022-08-30T16:50:13.025Z,56.40
2022-08-30T16:52:43.937Z,56.40
2022-08-30T16:55:11.232Z,57.50
2022-08-30T16:57:38.735Z,59.20
2022-08-30T17:00:13.226Z,58.20
2022-08-30T17:02:44.409Z,58.60
2022-08-30T17:05:21.897Z,58.50
2022-08-30T17:07:50.273Z,59.50
2022-08-30T17:10:23.122Z,60.00
2022-08-30T17:12:50.287Z,60.30
2022-08-30T17:15:17.487Z,59.70
2022-08-30T17:17:44.483Z,62.30
2022-08-30T17:20:11.556Z,63.50
2022-08-30T17:22:38.898Z,65.90
2022-08-30T17:25:07.437Z,66.30
2022-08-30T17:27:34.250Z,66.20
2022-08-30T17:30:01.068Z,66.00
2022-08-30T17:32:27.849Z,67.00
2022-08-30T17:34:54.605Z,69.00
2022-08-30T17:37:21.973Z,69.70
2022-08-30T17:39:48.850Z,70.60
2022-08-30T17:42:15.980Z,72.40
2022-08-30T17:44:42.771Z,73.60
2022-08-30T17:47:10.260Z,75.10
2022-08-30T17:49:37.175Z,76.50
2022-08-30T17:52:05.112Z,78.80
2022-08-30T17:54:33.718Z,80.90
2022-08-30T17:57:01.756Z,81.80
2022-08-30T17:59:29.196Z,82.70
2022-08-30T18:01:58.491Z,86.60
2022-08-30T18:04:26.114Z,88.80
2022-08-30T18:06:54.501Z,88.00
2022-08-30T18:09:22.300Z,88.80
2022-08-30T18:11:49.717Z,88.40
2022-08-30T18:14:17.289Z,90.50
2022-08-30T18:16:50.256Z,91.50
2022-08-30T18:19:25.937Z,92.20
2022-08-30T18:21:54.811Z,93.70
2022-08-30T18:24:23.108Z,93.80
2022-08-30T18:26:49.961Z,94.20
2022-08-30T18:29:26.138Z,94.50
2022-08-30T18:31:58.568Z,93.80
2022-08-30T18:34:25.364Z,93.50
2022-08-30T18:36:52.369Z,94.50
2022-08-30T18:39:19.491Z,95.50
2022-08-30T18:41:47.323Z,95.60
2022-08-30T18:44:29.546Z,95.40
2022-08-30T18:47:03.601Z,95.60
2022-08-30T18:49:32.194Z,95.20
2022-08-30T18:51:59.517Z,94.90
2022-08-30T18:54:26.359Z,95.70
2022-08-30T18:56:53.140Z,96.10
2022-08-30T18:59:21.557Z,97.20
2022-08-30T19:01:49.172Z,97.60
2022-08-30T19:04:22.417Z,97.20
2022-08-30T19:06:57.304Z,97.80
2022-08-30T19:09:24.045Z,98.30
2022-08-30T19:11:53.844Z,97.60
2022-08-30T19:14:20.529Z,97.20
2022-08-30T19:16:48.111Z,96.90
2022-08-30T19:19:15.357Z,96.30
2022-08-30T19:21:42.408Z,96.40
2022-08-30T19:24:09.461Z,96.30
2022-08-30T19:26:38.518Z,95.80
2022-08-30T19:29:07.184Z,95.90
2022-08-30T19:31:34.247Z,96.20
2022-08-30T19:34:01.083Z,96.40
2022-08-30T19:36:28.939Z,95.60
2022-08-30T19:38:56.118Z,96.00
2022-08-30T19:41:23.604Z,96.60
2022-08-30T19:43:51.329Z,97.50
2022-08-30T19:46:18.051Z,98.30
2022-08-30T19:48:44.864Z,99.00
2022-08-30T19:51:13.822Z,99.90
2022-08-30T19:53:41.578Z,99.90
2022-08-30T19:56:08.485Z,99.90
2022-08-30T19:58:35.309Z,99.90
2022-08-30T20:01:13.278Z,99.90
2022-08-30T20:03:51.942Z,99.90
2022-08-30T20:06:20.003Z,99.90
2022-08-30T20:08:47.276Z,99.90
2022-08-30T20:11:16.691Z,99.90
2022-08-30T20:13:44.939Z,99.90
2022-08-30T20:16:13.224Z,99.90
2022-08-30T20:18:42.664Z,99.90
2022-08-30T20:21:13.511Z,99.90
2022-08-30T20:23:42.036Z,99.90
2022-08-30T20:26:10.539Z,99.90
2022-08-30T20:28:37.781Z,99.90
2022-08-30T20:31:06.270Z,99.90
2022-08-30T20:33:37.636Z,99.90
2022-08-30T20:36:06.896Z,99.90
2022-08-30T20:38:33.754Z,99.90
2022-08-30T20:41:02.648Z,99.90
2022-08-30T20:43:30.663Z,99.90
2022-08-30T20:45:57.587Z,99.90
2022-08-30T20:48:27.054Z,99.90
2022-08-30T20:50:53.780Z,99.90
2022-08-30T20:53:20.494Z,99.90
2022-08-30T20:55:47.830Z,99.90
2022-08-30T20:58:15.232Z,99.90
2022-08-30T21:00:45.687Z,99.70
2022-08-30T21:03:25.918Z,99.90
2022-08-30T21:05:55.079Z,99.80
2022-08-30T21:08:21.873Z,99.90
2022-08-30T21:10:48.721Z,99.90
2022-08-30T21:13:15.705Z,99.90
2022-08-30T21:15:46.065Z,99.90
2022-08-30T21:18:14.444Z,99.90
2022-08-30T21:20:42.121Z,99.90
2022-08-30T21:23:10.962Z,99.90
2022-08-30T21:25:39.905Z,99.90
2022-08-30T21:28:07.025Z,99.90
2022-08-30T21:30:34.828Z,99.90
2022-08-30T21:33:03.706Z,99.90
2022-08-30T21:35:49.231Z,99.90
2022-08-30T21:38:16.953Z,99.90
2022-08-30T21:40:44.283Z,99.90
2022-08-30T21:43:11.685Z,99.90
2022-08-30T21:45:39.945Z,99.90
2022-08-30T21:48:07.333Z,99.90
2022-08-30T21:50:34.143Z,99.90
2022-08-30T21:53:01.039Z,99.90
2022-08-30T21:55:27.813Z,99.90
2022-08-30T21:57:55.575Z,99.90
2022-08-30T22:00:22.359Z,99.90
2022-08-30T22:02:49.397Z,99.90
2022-08-30T22:05:19.996Z,99.90
2022-08-30T22:07:46.716Z,99.90
2022-08-30T22:10:13.481Z,99.90
2022-08-30T22:12:41.590Z,99.90
2022-08-30T22:15:09.224Z,99.90
2022-08-30T22:17:35.968Z,99.90
2022-08-30T22:20:03.973Z,99.90
2022-08-30T22:22:30.735Z,99.90
2022-08-30T22:24:57.512Z,99.90
2022-08-30T22:27:24.301Z,99.90
2022-08-30T22:29:51.206Z,99.90
2022-08-30T22:32:18.217Z,99.90
2022-08-30T22:34:45.811Z,99.90
2022-08-30T22:37:12.594Z,99.90
2022-08-30T22:39:39.405Z,99.90
2022-08-30T22:42:06.465Z,99.90
2022-08-30T22:44:33.231Z,99.90
2022-08-30T22:47:00.946Z,99.90
2022-08-30T22:49:28.130Z,99.90
2022-08-30T22:51:54.836Z,99.90
2022-08-30T22:54:21.885Z,99.90
2022-08-30T22:56:49.888Z,99.90
2022-08-30T22:59:16.722Z,99.90
2022-08-30T23:01:44.798Z,99.90
2022-08-30T23:04:12.753Z,99.90
2022-08-30T23:06:40.554Z,99.90
2022-08-30T23:09:08.159Z,99.90
2022-08-30T23:11:38.136Z,99.90
2022-08-30T23:14:06.328Z,99.90
2022-08-30T23:16:33.847Z,99.90
2022-08-30T23:19:00.658Z,99.90
2022-08-30T23:21:29.747Z,99.90
2022-08-30T23:24:15.997Z,99.90
2022-08-30T23:27:03.169Z,99.90
2022-08-30T23:29:48.987Z,99.90
2022-08-30T23:32:34.165Z,99.90
2022-08-30T23:35:19.761Z,99.90
2022-08-30T23:38:05.251Z,99.90
2022-08-30T23:40:50.781Z,99.90
2022-08-30T23:43:36.284Z,99.90
2022-08-30T23:46:21.914Z,99.90
2022-08-30T23:49:08.277Z,99.90
2022-08-30T23:51:55.718Z,99.90
2022-08-30T23:54:41.736Z,99.90
2022-08-30T23:57:27.362Z,99.90
